Time;durP1;ratioP1;P1;durP2;ratioP2;P2;SDS_P1;SDS_P2;PMS_P1;PMS_P2;Temp;Humidity;BMP_temperature;BMP_pressure;BME280_temperature;BME280_humidity;BME280_pressure;Samples;Min_cycle;Max_cycle;Signal;HPM_P1;HPM_P2
2023/03/11 00:01:11;;;;;;;12.43;5.93;;;;;;;13.34;84.85;95280.81;5068606;28;20199;-77
2023/03/11 00:03:39;;;;;;;11.40;6.33;;;;;;;13.52;84.34;95276.66;5050943;28;20192;-76
2023/03/11 00:06:06;;;;;;;12.37;6.43;;;;;;;13.44;84.59;95261.72;5069151;28;20303;-77
2023/03/11 00:08:40;;;;;;;16.87;7.43;;;;;;;13.39;84.09;95276.06;5068067;28;20198;-77
2023/03/11 00:11:07;;;;;;;11.10;6.67;;;;;;;13.22;84.23;95261.06;5049869;28;20247;-76
2023/03/11 00:13:49;;;;;;;14.57;6.80;;;;;;;13.17;83.65;95263.25;5068309;28;20702;-76
2023/03/11 00:16:16;;;;;;;11.50;7.40;;;;;;;13.14;83.29;95259.13;5069066;28;20192;-75
2023/03/11 00:18:43;;;;;;;10.60;7.00;;;;;;;13.14;82.96;95253.09;5050487;28;20188;-74
2023/03/11 00:21:15;;;;;;;11.47;6.97;;;;;;;13.04;82.82;95221.88;5050146;28;20237;-74
2023/03/11 00:23:44;;;;;;;11.53;6.70;;;;;;;13.22;82.77;95243.69;5068484;28;20193;-74
2023/03/11 00:26:11;;;;;;;9.07;6.50;;;;;;;13.23;82.59;95234.94;5067696;28;20205;-76
2023/03/11 00:28:38;;;;;;;10.87;6.67;;;;;;;13.21;83.02;95241.22;5069034;28;20593;-74
2023/03/11 00:31:05;;;;;;;10.93;6.93;;;;;;;13.25;82.39;95224.44;5050000;28;20223;-73
2023/03/11 00:33:32;;;;;;;9.10;6.43;;;;;;;13.20;82.55;95221.38;5068166;28;20196;-75
2023/03/11 00:35:59;;;;;;;10.90;6.57;;;;;;;13.12;83.33;95218.59;5050116;28;20689;-74
2023/03/11 00:38:26;;;;;;;10.03;6.80;;;;;;;13.18;83.37;95218.91;5067980;28;20253;-74
2023/03/11 00:40:53;;;;;;;10.43;7.30;;;;;;;13.10;83.59;95207.53;5050317;28;20239;-77
2023/03/11 00:43:22;;;;;;;12.60;7.57;;;;;;;13.03;84.14;95201.97;5067484;28;20183;-75
2023/03/11 00:45:50;;;;;;;10.77;7.20;;;;;;;13.09;83.42;95204.09;5068431;28;20216;-75
2023/03/11 00:48:17;;;;;;;14.13;8.00;;;;;;;12.94;82.64;95213.97;5067629;28;20275;-75
2023/03/11 00:50:45;;;;;;;10.80;6.53;;;;;;;12.87;81.89;95210.25;5049956;28;20662;-76
2023/03/11 00:53:12;;;;;;;16.93;7.53;;;;;;;12.81;81.54;95194.34;5067863;28;20195;-75
2023/03/11 00:55:40;;;;;;;12.83;6.57;;;;;;;12.86;82.25;95195.59;5033008;28;20196;-75
2023/03/11 00:58:10;;;;;;;11.97;7.37;;;;;;;12.91;81.99;95196.06;5049862;28;20271;-77
2023/03/11 01:00:50;;;;;;;10.50;6.67;;;;;;;12.80;82.49;95183.13;5049150;28;20226;-76
2023/03/11 01:03:17;;;;;;;14.43;7.27;;;;;;;12.77;82.72;95177.38;5049889;28;20711;-76
2023/03/11 01:05:45;;;;;;;9.40;6.77;;;;;;;12.81;83.47;95187.41;5067207;28;20196;-76
2023/03/11 01:08:12;;;;;;;15.20;9.33;;;;;;;12.83;83.28;95172.50;5049744;28;20672;-77
2023/03/11 01:10:39;;;;;;;11.50;6.80;;;;;;;12.49;85.91;95142.50;5049688;28;20714;-77
2023/03/11 01:13:06;;;;;;;17.97;7.47;;;;;;;12.70;88.27;95161.50;5067391;28;20245;-76
2023/03/11 01:15:35;;;;;;;12.60;8.30;;;;;;;12.67;90.38;95150.53;5067597;28;20191;-75
2023/03/11 01:18:04;;;;;;;13.37;7.40;;;;;;;12.82;90.26;95170.00;5048937;28;20184;-77
2023/03/11 01:20:33;;;;;;;14.30;7.40;;;;;;;12.99;89.94;95170.25;5032966;28;20261;-76
2023/03/11 01:23:01;;;;;;;15.03;6.80;;;;;;;13.04;89.96;95165.50;5067140;28;20281;-78
2023/03/11 01:25:28;;;;;;;11.57;6.30;;;;;;;13.00;90.31;95164.09;5049275;28;20218;-76
2023/03/11 01:27:57;;;;;;;10.23;6.00;;;;;;;12.95;90.99;95155.03;5067251;28;20188;-75
2023/03/11 01:30:26;;;;;;;11.90;6.23;;;;;;;13.01;90.84;95154.53;5048900;28;20203;-75
2023/03/11 01:32:54;;;;;;;8.80;5.63;;;;;;;13.05;91.28;95133.38;5067464;28;20282;-75
2023/03/11 01:35:23;;;;;;;9.27;6.33;;;;;;;13.22;90.33;95131.09;5048490;28;20196;-75
2023/03/11 01:37:52;;;;;;;10.13;5.73;;;;;;;13.23;89.98;95127.56;5032895;28;20192;-75
2023/03/11 01:40:43;;;;;;;16.23;5.80;;;;;;;13.28;89.67;95127.97;5049053;28;20322;-77
2023/03/11 01:43:44;;;;;;;11.03;6.03;;;;;;;13.16;91.01;95118.63;5048771;28;20657;-76
2023/03/11 01:46:17;;;;;;;12.73;5.70;;;;;;;13.03;91.85;95118.84;5042659;28;20695;-76
2023/03/11 01:48:53;;;;;;;14.57;5.80;;;;;;;13.11;91.83;95124.22;5044894;28;20262;-75
2023/03/11 01:51:33;;;;;;;12.30;5.90;;;;;;;13.24;91.15;95124.81;5029944;28;20200;-77
2023/03/11 01:54:04;;;;;;;10.47;5.63;;;;;;;13.31;90.17;95115.53;5035675;28;20197;-76
2023/03/11 01:56:33;;;;;;;7.13;5.07;;;;;;;13.26;90.02;95119.47;5028595;28;20639;-76
2023/03/11 01:59:00;;;;;;;10.03;5.87;;;;;;;13.46;89.59;95128.94;5029374;28;20198;-76
2023/03/11 02:01:28;;;;;;;11.30;6.07;;;;;;;13.50;88.82;95130.31;5028257;28;20242;-76
2023/03/11 02:03:57;;;;;;;13.87;6.17;;;;;;;13.47;88.77;95135.81;5045654;28;20204;-76
2023/03/11 02:06:25;;;;;;;12.17;5.47;;;;;;;13.64;87.98;95132.56;5028479;28;20203;-76
2023/03/11 02:08:53;;;;;;;13.70;6.10;;;;;;;13.47;89.09;95130.63;5012233;28;20201;-75
2023/03/11 02:11:27;;;;;;;10.47;6.13;;;;;;;13.14;90.38;95123.13;5031312;28;20231;-76
2023/03/11 02:13:59;;;;;;;10.80;5.77;;;;;;;13.23;90.01;95132.75;5032430;28;20673;-75
2023/03/11 02:16:27;;;;;;;11.10;5.70;;;;;;;13.34;90.14;95123.06;5016830;28;20672;-76
2023/03/11 02:18:59;;;;;;;12.60;5.87;;;;;;;13.46;89.89;95128.94;5035248;28;20250;-76
2023/03/11 02:21:30;;;;;;;13.37;5.03;;;;;;;13.54;89.76;95132.53;5050568;28;20698;-75
2023/03/11 02:24:06;;;;;;;10.60;6.30;;;;;;;13.29;90.14;95117.44;5033180;28;20242;-74
2023/03/11 02:26:34;;;;;;;9.77;5.40;;;;;;;13.29;90.67;95107.03;5050171;28;20208;-75
2023/03/11 02:29:04;;;;;;;12.80;6.40;;;;;;;13.25;90.80;95116.03;5016012;28;20240;-75
2023/03/11 02:31:33;;;;;;;13.90;6.47;;;;;;;13.19;90.96;95120.97;5031983;28;20192;-76
2023/03/11 02:34:02;;;;;;;11.90;5.83;;;;;;;13.13;92.07;95111.91;5049474;28;20193;-75
2023/03/11 02:36:30;;;;;;;9.87;5.63;;;;;;;13.23;90.71;95101.56;5032275;28;20696;-76
2023/03/11 02:38:57;;;;;;;10.70;6.17;;;;;;;13.34;90.17;95104.03;5032680;28;20190;-76
2023/03/11 02:41:25;;;;;;;14.23;6.73;;;;;;;13.34;90.37;95098.81;5032006;28;20228;-76
2023/03/11 02:43:53;;;;;;;15.77;8.10;;;;;;;13.24;90.65;95093.63;5032126;28;20287;-76
2023/03/11 02:46:22;;;;;;;11.00;6.53;;;;;;;13.21;91.18;95101.66;5032577;28;20200;-76
2023/03/11 02:48:52;;;;;;;15.43;6.87;;;;;;;13.18;90.86;95093.34;5049620;28;20696;-75
2023/03/11 02:51:19;;;;;;;12.57;6.33;;;;;;;13.15;90.70;95084.00;5032393;28;20276;-74
2023/03/11 02:53:52;;;;;;;12.80;6.53;;;;;;;13.15;91.06;95094.41;5031796;28;20197;-75
2023/03/11 02:56:20;;;;;;;11.97;6.43;;;;;;;13.05;90.97;95097.00;5031922;28;20696;-73
2023/03/11 02:58:47;;;;;;;9.40;5.50;;;;;;;13.04;91.99;95097.13;5015466;28;20209;-74
2023/03/11 03:01:18;;;;;;;7.50;5.20;;;;;;;13.02;91.91;95094.63;5049435;28;20732;-76
2023/03/11 03:03:48;;;;;;;9.97;5.73;;;;;;;12.97;91.60;95091.59;5032486;28;20203;-77
2023/03/11 03:06:15;;;;;;;20.03;11.53;;;;;;;13.01;91.76;95076.56;5047792;28;20213;-76
2023/03/11 03:08:42;;;;;;;19.93;11.87;;;;;;;13.17;91.33;95076.91;5032053;28;20731;-76
2023/03/11 03:11:09;;;;;;;15.87;11.50;;;;;;;13.34;90.14;95083.22;5031350;28;20706;-77
2023/03/11 03:13:36;;;;;;;15.67;8.67;;;;;;;13.40;89.36;95080.09;5034920;28;20224;-77
2023/03/11 03:16:04;;;;;;;12.77;9.03;;;;;;;13.29;89.54;95077.63;5044742;28;20201;-75
2023/03/11 03:18:32;;;;;;;16.07;8.47;;;;;;;13.32;88.91;95053.94;5031121;28;20193;-76
2023/03/11 03:21:10;;;;;;;13.33;7.63;;;;;;;13.11;88.97;95079.25;5031532;28;20247;-76
2023/03/11 03:23:46;;;;;;;9.77;7.40;;;;;;;13.18;87.86;95072.53;5049099;28;20207;-76
2023/03/11 03:26:15;;;;;;;11.80;6.87;;;;;;;13.15;87.37;95078.03;5031819;28;20204;-76
2023/03/11 03:28:45;;;;;;;11.43;7.47;;;;;;;13.10;86.93;95067.19;5031353;28;20694;-75
2023/03/11 03:31:12;;;;;;;12.40;8.87;;;;;;;13.00;85.43;95074.94;5031261;28;20223;-75
2023/03/11 03:33:41;;;;;;;13.03;8.73;;;;;;;12.89;85.87;95056.84;5052962;28;20202;-75
2023/03/11 03:36:11;;;;;;;13.83;8.17;;;;;;;12.93;85.80;95071.22;5049138;28;20661;-75
2023/03/11 03:38:42;;;;;;;10.93;7.07;;;;;;;12.94;85.56;95073.66;5032020;28;20193;-77
2023/03/11 03:41:12;;;;;;;10.93;6.40;;;;;;;12.97;85.36;95067.41;5048530;28;20278;-77
2023/03/11 03:43:40;;;;;;;10.63;6.80;;;;;;;12.86;85.00;95065.72;5031543;28;20695;-77
2023/03/11 03:46:08;;;;;;;11.13;7.27;;;;;;;12.91;85.32;95066.16;5031032;28;20198;-77
2023/03/11 03:48:43;;;;;;;10.90;6.67;;;;;;;12.86;85.58;95070.91;5048958;28;20208;-77
2023/03/11 03:51:12;;;;;;;13.73;8.17;;;;;;;12.78;86.00;95069.91;5014622;28;20200;-76
2023/03/11 03:53:45;;;;;;;11.17;7.03;;;;;;;12.85;85.88;95065.84;5030577;28;20196;-75
2023/03/11 03:56:16;;;;;;;9.33;5.97;;;;;;;12.65;85.97;95045.97;5031414;28;20242;-75
2023/03/11 03:58:44;;;;;;;11.70;6.33;;;;;;;12.78;85.49;95044.78;5047310;28;20674;-75
2023/03/11 04:01:12;;;;;;;11.40;7.10;;;;;;;12.75;85.67;95055.44;5047510;28;20235;-76
2023/03/11 04:03:40;;;;;;;16.23;8.47;;;;;;;12.78;85.70;95054.34;5047338;28;20199;-76
2023/03/11 04:06:13;;;;;;;13.40;7.17;;;;;;;12.70;85.85;95057.59;5030690;28;20193;-76
2023/03/11 04:08:41;;;;;;;14.30;7.63;;;;;;;12.70;85.31;95057.59;5049079;28;20193;-74
2023/03/11 04:11:11;;;;;;;12.33;8.27;;;;;;;11.63;86.94;95039.91;5030073;28;20195;-74
2023/03/11 04:13:43;;;;;;;17.20;10.70;;;;;;;11.10;88.41;95037.28;5048711;28;20190;-76
2023/03/11 04:16:20;;;;;;;19.87;10.93;;;;;;;11.03;88.87;95048.25;5030347;28;20199;-74
2023/03/11 04:18:48;;;;;;;18.37;10.77;;;;;;;10.97;89.80;95053.91;5047068;28;20199;-75
2023/03/11 04:21:20;;;;;;;19.37;10.30;;;;;;;10.92;89.95;95048.28;5030213;28;20234;-78
2023/03/11 04:23:50;;;;;;;12.93;9.07;;;;;;;10.74;91.42;95058.31;5030194;28;20650;-77
2023/03/11 04:26:21;;;;;;;13.93;8.90;;;;;;;10.71;91.61;95057.72;5030745;28;20746;-73
2023/03/11 04:28:48;;;;;;;20.63;9.10;;;;;;;10.72;92.58;95043.81;5046610;28;20218;-76
2023/03/11 04:31:17;;;;;;;11.10;9.23;;;;;;;10.71;93.12;95037.84;5037689;28;20225;-75
2023/03/11 04:33:45;;;;;;;17.07;9.47;;;;;;;10.83;93.40;95043.81;5029101;28;20204;-73
2023/03/11 04:36:13;;;;;;;16.50;9.43;;;;;;;10.95;92.88;95046.28;5030117;28;20618;-74
2023/03/11 04:38:41;;;;;;;15.03;9.67;;;;;;;11.18;91.62;95050.47;5046796;28;20229;-77
2023/03/11 04:41:11;;;;;;;15.00;8.93;;;;;;;11.39;89.86;95040.97;5029753;28;20223;-75
2023/03/11 04:43:39;;;;;;;13.00;8.70;;;;;;;11.54;88.38;95056.22;5030562;28;20200;-74
2023/03/11 04:46:06;;;;;;;13.00;8.80;;;;;;;11.66;87.46;95056.09;5029601;28;20213;-75
2023/03/11 04:48:33;;;;;;;13.70;8.80;;;;;;;11.74;87.03;95060.63;5046835;28;20358;-74
2023/03/11 04:51:01;;;;;;;15.03;9.10;;;;;;;11.78;86.77;95059.44;5047586;28;20612;-75
2023/03/11 04:53:28;;;;;;;16.93;9.10;;;;;;;11.76;86.64;95069.09;5047516;28;20230;-74
2023/03/11 04:55:56;;;;;;;13.67;9.17;;;;;;;11.68;86.29;95076.69;5029727;28;20191;-75
2023/03/11 04:58:23;;;;;;;19.63;12.23;;;;;;;11.41;87.73;95074.53;5047452;28;20222;-75
2023/03/11 05:00:51;;;;;;;20.40;11.50;;;;;;;11.16;88.52;95080.84;5046579;28;20312;-75
2023/03/11 05:03:20;;;;;;;14.77;10.70;;;;;;;11.17;88.84;95068.72;5047116;28;20239;-75
2023/03/11 05:05:47;;;;;;;13.53;9.60;;;;;;;11.24;89.56;95072.44;5013802;28;20206;-75
2023/03/11 05:08:15;;;;;;;14.80;10.47;;;;;;;11.21;89.42;95078.69;5030278;28;20196;-75
2023/03/11 05:10:43;;;;;;;18.30;10.13;;;;;;;11.35;88.77;95078.41;5046268;28;20192;-75
2023/03/11 05:13:11;;;;;;;13.77;9.30;;;;;;;11.21;89.15;95067.53;5047623;28;20223;-78
2023/03/11 05:15:40;;;;;;;14.17;9.63;;;;;;;11.43;89.01;95080.41;5029215;28;20206;-77
2023/03/11 05:18:08;;;;;;;17.30;10.47;;;;;;;11.47;88.19;95089.59;5047498;28;20209;-77
2023/03/11 05:20:37;;;;;;;15.77;9.93;;;;;;;11.43;88.61;95089.00;5028557;28;20237;-77
2023/03/11 05:23:05;;;;;;;14.40;9.37;;;;;;;11.48;87.48;95074.88;5029495;28;20717;-76
2023/03/11 05:25:34;;;;;;;18.53;10.77;;;;;;;11.41;87.50;95085.72;5036600;28;20208;-76
2023/03/11 05:28:02;;;;;;;18.53;11.20;;;;;;;11.21;88.36;95083.88;5045968;28;20190;-74
2023/03/11 05:30:31;;;;;;;13.43;10.70;;;;;;;11.12;89.61;95073.44;5029220;28;20195;-75
2023/03/11 05:32:58;;;;;;;16.03;11.63;;;;;;;11.32;89.63;95096.81;5047032;28;20273;-76
2023/03/11 05:35:39;;;;;;;16.43;11.70;;;;;;;11.41;88.76;95088.31;5047430;28;20200;-76
2023/03/11 05:38:20;;;;;;;17.90;11.83;;;;;;;11.37;88.57;95068.75;5014203;28;20201;-76
2023/03/11 05:41:31;;;;;;;18.43;12.17;;;;;;;11.47;88.79;95087.00;5011089;28;20252;-77
2023/03/11 05:45:33;;;;;;;17.23;12.20;;;;;;;11.50;88.90;95085.94;5036601;28;20210;-77
2023/03/11 05:48:20;;;;;;;16.10;12.00;;;;;;;11.61;88.39;95084.09;5036876;28;20731;-73
2023/03/11 05:50:47;;;;;;;24.30;12.70;;;;;;;11.81;88.31;95072.97;5045185;28;20198;-76
2023/03/11 05:53:15;;;;;;;16.40;11.77;;;;;;;11.79;87.82;95077.44;5029264;28;20259;-76
2023/03/11 05:55:44;;;;;;;17.30;11.37;;;;;;;11.82;87.42;95085.00;5045037;28;20285;-77
2023/03/11 05:58:11;;;;;;;17.23;11.33;;;;;;;11.98;87.40;95085.38;5032810;28;20191;-77
2023/03/11 06:00:39;;;;;;;19.70;12.07;;;;;;;11.93;87.31;95076.34;5046690;28;20214;-74
2023/03/11 06:03:06;;;;;;;19.23;10.30;;;;;;;11.85;87.66;95076.94;5047329;28;20711;-76
2023/03/11 06:05:33;;;;;;;17.23;10.03;;;;;;;11.70;88.38;95064.41;5048505;28;20199;-76
2023/03/11 06:08:00;;;;;;;15.90;9.53;;;;;;;11.79;89.17;95053.28;5035456;28;20198;-77
2023/03/11 06:10:27;;;;;;;15.37;9.67;;;;;;;11.70;89.79;95059.25;5029035;28;20190;-78
2023/03/11 06:12:55;;;;;;;14.27;9.50;;;;;;;11.90;89.34;95071.38;5046188;28;20199;-76
2023/03/11 06:15:25;;;;;;;15.90;9.53;;;;;;;11.92;88.51;95059.13;5037568;28;20291;-76
2023/03/11 06:17:53;;;;;;;13.90;10.03;;;;;;;12.01;87.88;95059.16;5061252;28;20684;-75
2023/03/11 06:20:21;;;;;;;16.10;11.30;;;;;;;12.00;87.73;95043.72;5037411;28;20226;-74
2023/03/11 06:22:48;;;;;;;12.83;9.00;;;;;;;11.86;87.94;95049.25;5026023;28;20626;-78
2023/03/11 06:25:16;;;;;;;17.77;9.80;;;;;;;11.76;89.69;95038.00;5028295;28;20722;-75
2023/03/11 06:27:51;;;;;;;15.53;10.50;;;;;;;11.93;89.81;95047.81;5045458;28;20222;-74
2023/03/11 06:30:19;;;;;;;17.13;10.97;;;;;;;12.06;89.54;95051.00;5054666;28;20204;-76
2023/03/11 06:32:55;;;;;;;15.13;10.97;;;;;;;12.13;89.31;95052.16;5028622;28;20724;-75
2023/03/11 06:35:24;;;;;;;15.13;10.43;;;;;;;12.19;89.68;95068.03;5012816;28;20315;-76
2023/03/11 06:37:51;;;;;;;17.20;10.77;;;;;;;12.37;88.94;95063.06;5047044;28;20876;-78
2023/03/11 06:40:18;;;;;;;16.07;11.03;;;;;;;12.48;88.86;95077.72;5047839;28;20195;-75
2023/03/11 06:42:47;;;;;;;12.50;9.10;;;;;;;12.59;87.58;95054.28;5042841;28;20313;-78
2023/03/11 06:45:15;;;;;;;15.90;9.60;;;;;;;12.81;86.60;95069.69;5044737;28;20683;-78
2023/03/11 06:47:48;;;;;;;15.10;9.03;;;;;;;12.72;86.15;95071.28;5062484;28;20208;-76
2023/03/11 06:50:16;;;;;;;12.83;8.97;;;;;;;12.72;86.56;95067.84;5047052;28;20699;-75
2023/03/11 06:52:43;;;;;;;19.13;9.50;;;;;;;12.66;86.34;95053.63;5062645;28;20196;-78
2023/03/11 06:55:10;;;;;;;11.77;8.50;;;;;;;12.84;86.41;95062.44;5039114;28;20223;-76
2023/03/11 06:57:38;;;;;;;14.47;9.87;;;;;;;13.18;85.80;95055.19;5049914;28;20210;-77
2023/03/11 07:00:11;;;;;;;12.23;8.23;;;;;;;13.48;84.18;95059.44;5030970;28;20662;-78
2023/03/11 07:02:41;;;;;;;10.73;7.17;;;;;;;13.52;83.05;95050.41;5051554;28;20241;-76
2023/03/11 07:05:11;;;;;;;12.57;8.90;;;;;;;13.57;82.60;95048.22;5049201;28;20288;-77
2023/03/11 07:07:38;;;;;;;16.27;9.63;;;;;;;13.75;81.51;95043.97;5018341;28;20716;-79
2023/03/11 07:10:06;;;;;;;15.60;10.03;;;;;;;13.75;81.40;95052.59;5031513;28;20256;-75
2023/03/11 07:12:34;;;;;;;15.53;9.70;;;;;;;13.97;81.42;95055.88;5037425;28;20581;-79
2023/03/11 07:15:02;;;;;;;15.00;9.80;;;;;;;14.19;80.66;95048.56;5063699;28;20192;-75
2023/03/11 07:17:34;;;;;;;14.10;10.03;;;;;;;14.21;80.22;95058.84;5036974;28;20781;-77
2023/03/11 07:20:02;;;;;;;15.30;10.00;;;;;;;14.25;80.54;95050.63;5047846;28;20698;-77
2023/03/11 07:22:30;;;;;;;18.97;11.37;;;;;;;14.48;79.66;95043.31;5030800;28;20226;-77
2023/03/11 07:25:01;;;;;;;20.93;13.00;;;;;;;14.63;79.60;95029.66;5030905;28;20228;-76
2023/03/11 07:27:29;;;;;;;16.07;12.30;;;;;;;14.82;78.91;95023.56;5047067;28;20196;-75
2023/03/11 07:29:56;;;;;;;17.53;10.27;;;;;;;14.83;79.22;95016.56;5054539;28;20208;-75
2023/03/11 07:32:26;;;;;;;18.90;8.83;;;;;;;14.95;79.06;95012.78;5048767;28;20269;-76
2023/03/11 07:34:53;;;;;;;10.70;7.70;;;;;;;15.00;79.41;95002.75;5060586;28;20194;-76
2023/03/11 07:37:21;;;;;;;13.30;8.63;;;;;;;15.11;78.96;94999.91;5031309;28;20206;-75
2023/03/11 07:40:16;;;;;;;13.10;8.30;;;;;;;15.00;79.33;94990.53;5048828;28;20277;-79
2023/03/11 07:42:48;;;;;;;11.60;8.13;;;;;;;15.28;78.67;94983.47;5030340;28;20778;-76
2023/03/11 07:45:18;;;;;;;13.27;7.60;;;;;;;15.39;77.43;94998.91;5030743;28;20190;-76
2023/03/11 07:47:45;;;;;;;16.10;6.90;;;;;;;15.44;77.00;94988.88;5055869;28;20193;-76
2023/03/11 07:50:13;;;;;;;14.60;6.77;;;;;;;15.58;75.95;94993.56;5067166;28;20257;-75
2023/03/11 07:52:42;;;;;;;20.27;7.23;;;;;;;15.58;74.50;94996.16;5060939;28;20220;-75
2023/03/11 07:55:09;;;;;;;12.57;6.53;;;;;;;15.67;73.04;95007.50;5050588;28;20219;-75
2023/03/11 07:57:39;;;;;;;7.33;4.90;;;;;;;15.61;72.10;94984.63;5068162;28;20197;-75
2023/03/11 08:00:25;;;;;;;12.10;4.90;;;;;;;15.06;71.13;94921.34;5047612;28;20196;-79
2023/03/11 08:02:53;;;;;;;13.53;5.07;;;;;;;15.60;70.68;94952.47;5032444;28;20710;-76
2023/03/11 08:05:27;;;;;;;8.37;4.80;;;;;;;15.73;70.81;94989.44;5048720;28;20201;-76
2023/03/11 08:08:02;;;;;;;10.87;5.93;;;;;;;15.70;70.46;94989.78;5064098;28;20266;-77
2023/03/11 08:10:29;;;;;;;6.20;4.07;;;;;;;15.72;69.19;94993.03;5049418;28;20391;-75
2023/03/11 08:13:00;;;;;;;10.30;7.20;;;;;;;15.64;69.00;94979.91;5067917;28;20257;-75
2023/03/11 08:15:30;;;;;;;10.80;7.10;;;;;;;15.90;68.51;94995.63;5046737;28;20191;-78
2023/03/11 08:17:58;;;;;;;9.70;5.97;;;;;;;16.06;67.21;94993.94;5065749;28;20236;-77
2023/03/11 08:20:28;;;;;;;8.27;4.90;;;;;;;15.97;66.86;94987.00;5031847;28;20286;-78
2023/03/11 08:22:57;;;;;;;6.93;4.73;;;;;;;15.89;66.94;94988.78;5067221;28;20226;-75
2023/03/11 08:25:28;;;;;;;8.53;5.27;;;;;;;16.04;65.59;95001.09;5049509;28;20180;-78
2023/03/11 08:27:59;;;;;;;11.03;5.03;;;;;;;16.22;63.92;95007.09;5031507;28;20206;-78
2023/03/11 08:30:30;;;;;;;7.93;3.77;;;;;;;16.33;62.83;95005.19;5068256;28;20492;-76
2023/03/11 08:33:03;;;;;;;9.67;4.80;;;;;;;16.15;62.80;94981.75;5032734;28;20210;-77
2023/03/11 08:35:39;;;;;;;12.60;6.33;;;;;;;16.38;62.25;94989.88;5050464;28;20661;-76
2023/03/11 08:38:10;;;;;;;14.73;6.93;;;;;;;16.48;61.26;95004.47;5043393;28;20210;-76
2023/03/11 08:40:37;;;;;;;11.77;4.70;;;;;;;16.61;61.05;95007.50;5065878;28;20198;-79
2023/03/11 08:43:04;;;;;;;5.40;3.00;;;;;;;16.33;61.33;94999.97;5049130;28;20222;-77
2023/03/11 08:45:32;;;;;;;5.93;3.50;;;;;;;16.53;61.41;94993.56;5066689;28;20195;-76
2023/03/11 08:47:59;;;;;;;5.27;3.30;;;;;;;16.47;61.02;94983.72;5067644;28;20239;-78
2023/03/11 08:50:27;;;;;;;5.73;3.43;;;;;;;16.45;60.66;94964.75;5066848;28;20646;-76
2023/03/11 08:53:02;;;;;;;6.90;3.60;;;;;;;16.89;60.17;95005.50;5066754;28;20213;-74
2023/03/11 08:55:29;;;;;;;7.27;3.37;;;;;;;16.83;60.19;95000.91;5066966;28;20627;-76
2023/03/11 08:57:57;;;;;;;4.00;2.17;;;;;;;16.71;58.87;95002.97;5032132;28;20692;-77
2023/03/11 09:00:24;;;;;;;5.03;2.90;;;;;;;16.75;58.83;94987.81;5049010;28;20198;-76
2023/03/11 09:02:52;;;;;;;8.03;2.30;;;;;;;16.74;58.98;94991.38;5066573;28;20232;-77
2023/03/11 09:05:19;;;;;;;8.03;2.43;;;;;;;16.90;58.09;94996.66;5049336;28;20588;-75
2023/03/11 09:07:48;;;;;;;7.07;3.30;;;;;;;17.01;57.80;94994.59;5066610;28;20593;-76
2023/03/11 09:10:15;;;;;;;4.23;2.40;;;;;;;16.86;57.78;94953.50;5066633;28;20194;-77
2023/03/11 09:12:43;;;;;;;4.30;3.40;;;;;;;16.91;58.17;94982.63;5032014;28;20184;-77
2023/03/11 09:15:10;;;;;;;3.90;2.47;;;;;;;16.80;57.90;94980.28;5066145;28;20694;-76
2023/03/11 09:17:37;;;;;;;8.03;3.70;;;;;;;17.07;57.94;94977.44;5066566;28;20179;-76
2023/03/11 09:20:10;;;;;;;13.73;3.73;;;;;;;16.93;57.52;94949.28;5047517;28;20264;-78
2023/03/11 09:22:38;;;;;;;2.70;2.30;;;;;;;16.75;56.94;94959.06;5048623;28;20280;-75
2023/03/11 09:25:09;;;;;;;4.67;2.33;;;;;;;16.85;57.07;94959.72;5066263;28;20184;-76
2023/03/11 09:27:40;;;;;;;3.20;2.17;;;;;;;16.90;56.75;94955.66;5047135;28;20700;-75
2023/03/11 09:30:11;;;;;;;4.83;2.90;;;;;;;17.09;56.20;94965.84;5048181;28;20326;-76
2023/03/11 09:32:39;;;;;;;6.37;3.63;;;;;;;17.10;56.23;94966.69;5066542;28;20201;-76
2023/03/11 09:35:10;;;;;;;2.90;2.50;;;;;;;17.22;55.65;94957.53;5049271;28;20199;-75
2023/03/11 09:37:38;;;;;;;7.33;4.33;;;;;;;17.27;54.91;94963.09;5047912;28;20190;-77
2023/03/11 09:40:05;;;;;;;5.77;2.90;;;;;;;17.13;54.99;94955.88;5066128;28;20283;-76
2023/03/11 09:42:44;;;;;;;4.37;2.33;;;;;;;17.13;54.21;94957.66;5047559;28;20316;-76
2023/03/11 09:45:23;;;;;;;7.00;3.47;;;;;;;17.20;54.09;94961.28;5047501;28;20791;-75
2023/03/11 09:48:17;;;;;;;10.23;3.23;;;;;;;17.20;53.88;94956.88;5047429;28;20299;-74
2023/03/11 09:50:52;;;;;;;8.20;4.37;;;;;;;17.14;53.45;94954.91;5047565;28;20269;-75
2023/03/11 09:53:36;;;;;;;2.63;1.73;;;;;;;16.95;53.46;94940.31;5065877;28;20285;-76
2023/03/11 09:56:07;;;;;;;4.17;2.70;;;;;;;17.00;53.91;94935.41;5047858;28;20277;-75
2023/03/11 09:58:45;;;;;;;3.13;1.77;;;;;;;16.97;53.42;94942.78;5047044;28;20642;-75
2023/03/11 10:01:27;;;;;;;2.30;1.60;;;;;;;16.95;53.02;94942.09;5065962;28;20194;-75
2023/03/11 10:04:00;;;;;;;3.23;1.43;;;;;;;16.87;53.00;94942.91;5065334;28;20298;-75
2023/03/11 10:06:30;;;;;;;4.40;2.00;;;;;;;16.91;53.59;94940.78;5031233;28;20216;-75
2023/03/11 10:08:59;;;;;;;3.83;2.13;;;;;;;16.82;53.47;94936.50;5031610;28;20241;-78
2023/03/11 10:11:55;;;;;;;6.47;2.50;;;;;;;16.87;52.67;94934.25;5047948;28;20286;-78
2023/03/11 10:14:36;;;;;;;1.80;1.70;;;;;;;16.96;52.76;94934.09;5066430;28;20194;-76
2023/03/11 10:17:16;;;;;;;1.70;1.60;;;;;;;17.01;52.81;94933.63;5047854;28;20202;-75
2023/03/11 10:20:05;;;;;;;6.60;3.23;;;;;;;17.08;52.46;94924.97;5065833;28;20298;-76
2023/03/11 10:22:57;;;;;;;4.67;2.50;;;;;;;17.14;51.46;94931.38;5031536;28;20234;-77
2023/03/11 10:25:46;;;;;;;4.17;2.50;;;;;;;17.32;50.51;94918.13;5047407;28;20241;-75
2023/03/11 10:28:18;;;;;;;7.93;3.13;;;;;;;17.13;49.99;94918.44;5045712;28;20206;-76
2023/03/11 10:30:51;;;;;;;3.10;1.83;;;;;;;17.16;49.25;94924.19;5031034;28;20586;-78
2023/03/11 10:33:46;;;;;;;2.47;1.60;;;;;;;17.38;49.41;94926.16;5051737;28;20188;-77
2023/03/11 10:36:30;;;;;;;3.40;2.70;;;;;;;17.71;49.03;94919.13;5069870;28;20215;-76
2023/03/11 10:38:58;;;;;;;5.70;3.10;;;;;;;17.73;48.37;94907.53;5069362;28;20199;-78
2023/03/11 10:41:40;;;;;;;3.23;1.80;;;;;;;17.79;47.55;94888.53;5069800;28;20199;-76
2023/03/11 10:44:24;;;;;;;4.37;1.63;;;;;;;17.59;47.94;94874.16;5069514;28;20188;-76
2023/03/11 10:46:52;;;;;;;2.60;2.00;;;;;;;17.86;47.74;94897.38;5050816;28;20187;-77
2023/03/11 10:49:24;;;;;;;5.40;2.30;;;;;;;17.88;48.00;94895.41;5069472;28;20201;-76
2023/03/11 10:51:57;;;;;;;5.00;3.23;;;;;;;17.86;48.16;94897.38;5051506;28;20266;-77
2023/03/11 10:54:36;;;;;;;4.50;2.10;;;;;;;17.85;48.25;94898.34;5051012;28;20187;-76
2023/03/11 10:57:30;;;;;;;5.77;2.10;;;;;;;17.71;48.36;94893.78;5016740;28;20203;-76
2023/03/11 11:00:00;;;;;;;5.30;3.23;;;;;;;17.54;48.80;94907.84;5067565;28;20211;-75
2023/03/11 11:02:37;;;;;;;5.67;2.00;;;;;;;17.45;48.48;94897.53;5068793;28;20230;-75
2023/03/11 11:05:26;;;;;;;1.77;1.40;;;;;;;17.57;49.00;94901.47;5060549;28;20198;-75
2023/03/11 11:08:10;;;;;;;4.23;1.70;;;;;;;17.61;48.43;94908.84;5020315;28;20212;-75
2023/03/11 11:10:51;;;;;;;4.10;1.90;;;;;;;17.68;48.76;94898.53;5050535;28;20231;-75
2023/03/11 11:13:21;;;;;;;2.50;1.30;;;;;;;17.70;48.51;94894.75;5050036;28;20996;-76
2023/03/11 11:16:17;;;;;;;3.80;2.30;;;;;;;17.69;48.23;94898.38;5073756;28;20689;-76
2023/03/11 11:18:53;;;;;;;3.47;1.70;;;;;;;17.82;47.54;94896.06;5066597;28;20283;-75
2023/03/11 11:21:36;;;;;;;3.20;1.47;;;;;;;17.77;46.94;94893.13;5047996;28;20706;-75
2023/03/11 11:24:19;;;;;;;3.63;1.90;;;;;;;17.78;46.43;94893.94;5089351;28;20320;-75
2023/03/11 11:27:11;;;;;;;4.43;2.07;;;;;;;17.92;46.54;94900.28;5088597;28;20707;-74
2023/03/11 11:29:43;;;;;;;3.37;2.37;;;;;;;17.66;45.73;94900.50;5070139;28;20203;-76
2023/03/11 11:32:22;;;;;;;7.43;1.37;;;;;;;17.78;45.65;94901.81;5069982;28;20209;-76
2023/03/11 11:35:04;;;;;;;4.07;1.50;;;;;;;17.54;46.28;94878.25;5088392;28;20275;-75
2023/03/11 11:37:34;;;;;;;3.73;1.67;;;;;;;17.43;46.29;94887.25;5088554;28;20201;-75
2023/03/11 11:40:14;;;;;;;4.50;1.80;;;;;;;17.34;47.27;94884.78;5053500;28;20712;-75
2023/03/11 11:42:47;;;;;;;3.47;1.80;;;;;;;17.33;48.55;94889.19;5088366;28;20213;-75
2023/03/11 11:45:26;;;;;;;6.17;2.20;;;;;;;17.29;48.21;94894.94;5088848;28;20213;-77
2023/03/11 11:47:59;;;;;;;5.70;2.93;;;;;;;17.23;49.77;94895.56;5087906;28;20204;-78